Time;durP1;ratioP1;P1;durP2;ratioP2;P2;SDS_P1;SDS_P2;PMS_P1;PMS_P2;Temp;Humidity;BMP_temperature;BMP_pressure;BME280_temperature;BME280_humidity;BME280_pressure;Samples;Min_cycle;Max_cycle;Signal;HPM_P1;HPM_P2
2022/07/20 00:00:39;;;;;;;11.65;4.05;;;;;;;;;;5050475;28;20265;-59
2022/07/20 00:03:06;;;;;;;7.32;4.20;;;;;;;;;;5055242;28;20187;-58
2022/07/20 00:05:33;;;;;;;9.07;3.63;;;;;;;;;;5053725;28;20194;-59
2022/07/20 00:07:59;;;;;;;14.00;4.05;;;;;;;;;;5038709;28;20723;-59
2022/07/20 00:13:11;;;;;;;10.00;3.90;;;;;;;;;;5064654;28;20222;-59
2022/07/20 00:15:37;;;;;;;5.90;3.55;;;;;;;;;;5053672;28;20193;-58
2022/07/20 00:18:03;;;;;;;7.13;3.90;;;;;;;;;;5051823;28;20197;-59
2022/07/20 00:20:29;;;;;;;6.80;3.70;;;;;;;;;;5057013;28;20186;-58
2022/07/20 00:22:58;;;;;;;8.13;3.95;;;;;;;;;;5045105;28;20215;-58
2022/07/20 00:25:25;;;;;;;10.13;4.25;;;;;;;;;;5055173;28;20178;-58
2022/07/20 00:27:51;;;;;;;7.40;3.90;;;;;;;;;;5069744;28;20166;-59
2022/07/20 00:30:17;;;;;;;6.65;3.83;;;;;;;;;;5073012;28;20205;-59
2022/07/20 00:32:44;;;;;;;9.13;3.80;;;;;;;;;;5040900;28;20561;-59
2022/07/20 00:35:11;;;;;;;8.73;4.10;;;;;;;;;;5054144;28;20186;-59
2022/07/20 00:37:38;;;;;;;12.07;4.13;;;;;;;;;;5072811;28;20669;-59
2022/07/20 00:40:05;;;;;;;10.50;4.20;;;;;;;;;;5074064;28;20174;-59
2022/07/20 00:42:31;;;;;;;10.95;4.45;;;;;;;;;;5072149;28;20570;-59
2022/07/20 00:44:57;;;;;;;7.55;4.07;;;;;;;;;;5069213;28;20253;-59
2022/07/20 00:47:23;;;;;;;11.43;4.30;;;;;;;;;;5044265;28;20179;-59
2022/07/20 00:49:49;;;;;;;10.43;4.40;;;;;;;;;;5077546;28;20232;-59
2022/07/20 00:52:16;;;;;;;7.25;4.10;;;;;;;;;;5077527;28;20240;-59
2022/07/20 00:54:45;;;;;;;8.65;4.45;;;;;;;;;;5057248;28;20193;-59
2022/07/20 00:57:11;;;;;;;12.80;3.95;;;;;;;;;;5080445;28;20197;-59
2022/07/20 00:59:38;;;;;;;9.88;4.10;;;;;;;;;;5087190;28;20223;-59
2022/07/20 01:02:04;;;;;;;10.70;4.30;;;;;;;;;;5090303;28;20194;-59
2022/07/20 01:04:30;;;;;;;13.73;4.60;;;;;;;;;;5082098;28;20194;-60
2022/07/20 01:06:56;;;;;;;9.20;4.22;;;;;;;;;;5084111;28;20198;-59
2022/07/20 01:09:23;;;;;;;11.00;4.50;;;;;;;;;;5094053;28;20182;-60
2022/07/20 01:11:49;;;;;;;9.63;4.40;;;;;;;;;;5088562;28;20293;-59
2022/07/20 01:14:15;;;;;;;11.23;4.70;;;;;;;;;;5067805;28;20218;-59
2022/07/20 01:16:41;;;;;;;9.52;4.28;;;;;;;;;;5069266;28;20182;-59
2022/07/20 01:19:07;;;;;;;10.73;4.50;;;;;;;;;;5078228;28;20174;-59
2022/07/20 01:21:40;;;;;;;12.82;4.60;;;;;;;;;;5070244;28;20193;-59
2022/07/20 01:24:09;;;;;;;12.90;4.38;;;;;;;;;;5064199;28;20318;-58
2022/07/20 01:26:38;;;;;;;11.63;5.07;;;;;;;;;;5069695;28;20186;-61
2022/07/20 01:29:05;;;;;;;12.52;4.60;;;;;;;;;;5064227;28;20186;-63
2022/07/20 01:31:31;;;;;;;6.15;4.47;;;;;;;;;;5052247;28;20182;-59
2022/07/20 01:33:57;;;;;;;9.73;4.57;;;;;;;;;;5052415;28;20217;-60
2022/07/20 01:36:23;;;;;;;13.20;4.38;;;;;;;;;;5075388;28;20257;-60
2022/07/20 01:38:50;;;;;;;16.52;4.40;;;;;;;;;;5065159;28;20255;-60
2022/07/20 01:41:16;;;;;;;13.25;4.90;;;;;;;;;;5050811;28;20190;-61
2022/07/20 01:43:42;;;;;;;12.32;4.40;;;;;;;;;;5070539;28;20186;-58
2022/07/20 01:46:08;;;;;;;9.93;4.55;;;;;;;;;;5051143;28;20265;-58
2022/07/20 01:48:34;;;;;;;6.40;4.45;;;;;;;;;;5081207;28;20193;-59
2022/07/20 01:51:00;;;;;;;11.88;4.50;;;;;;;;;;5071861;28;20313;-59
2022/07/20 01:53:26;;;;;;;18.15;4.90;;;;;;;;;;5082777;28;20221;-59
2022/07/20 01:55:53;;;;;;;11.52;5.13;;;;;;;;;;5078322;28;20186;-59
2022/07/20 01:58:19;;;;;;;11.00;4.40;;;;;;;;;;5064634;28;20189;-59
2022/07/20 02:00:45;;;;;;;13.35;4.43;;;;;;;;;;5040652;28;20274;-59
2022/07/20 02:03:11;;;;;;;10.95;4.90;;;;;;;;;;5074284;28;20175;-58
2022/07/20 02:05:38;;;;;;;12.43;4.93;;;;;;;;;;5074228;28;20239;-58
2022/07/20 02:08:05;;;;;;;11.70;4.50;;;;;;;;;;5073132;28;20182;-58
2022/07/20 02:10:31;;;;;;;10.35;4.65;;;;;;;;;;5060896;28;20175;-61
2022/07/20 02:12:57;;;;;;;10.13;4.80;;;;;;;;;;5075125;28;20241;-59
2022/07/20 02:18:10;;;;;;;15.15;4.47;;;;;;;;;;5060652;28;20191;-59
2022/07/20 02:20:36;;;;;;;9.88;4.68;;;;;;;;;;5062135;28;20185;-59
2022/07/20 02:23:03;;;;;;;5.63;4.60;;;;;;;;;;5056633;28;20183;-60
2022/07/20 02:25:29;;;;;;;12.73;6.07;;;;;;;;;;5059010;28;20175;-59
2022/07/20 02:27:55;;;;;;;17.05;8.70;;;;;;;;;;5053097;28;20186;-61
2022/07/20 02:30:21;;;;;;;21.83;9.65;;;;;;;;;;5066305;28;20183;-60
2022/07/20 02:32:48;;;;;;;25.77;10.02;;;;;;;;;;5060422;28;20210;-59
2022/07/20 02:35:14;;;;;;;19.65;11.73;;;;;;;;;;5058570;28;20620;-60
2022/07/20 02:37:40;;;;;;;20.92;12.27;;;;;;;;;;5074071;28;20201;-58
2022/07/20 02:40:06;;;;;;;31.27;14.00;;;;;;;;;;5054662;28;20195;-59
2022/07/20 02:42:32;;;;;;;32.00;16.08;;;;;;;;;;5057206;28;20277;-59
2022/07/20 02:44:59;;;;;;;32.92;17.08;;;;;;;;;;5062343;28;20189;-59
2022/07/20 02:47:25;;;;;;;38.22;17.35;;;;;;;;;;5072575;28;20178;-59
2022/07/20 02:49:51;;;;;;;37.13;18.02;;;;;;;;;;5075195;28;20254;-59
2022/07/20 02:52:17;;;;;;;32.33;18.50;;;;;;;;;;5068067;28;20214;-59
2022/07/20 02:54:43;;;;;;;43.30;20.33;;;;;;;;;;5057562;28;20194;-60
2022/07/20 02:57:09;;;;;;;38.85;20.25;;;;;;;;;;5066098;28;20197;-59
2022/07/20 02:59:35;;;;;;;42.10;21.58;;;;;;;;;;5042923;28;20368;-59
2022/07/20 03:02:02;;;;;;;36.05;21.25;;;;;;;;;;5066679;28;20231;-59
2022/07/20 03:04:28;;;;;;;43.83;22.05;;;;;;;;;;5074228;28;20201;-58
2022/07/20 03:06:54;;;;;;;46.13;22.30;;;;;;;;;;5073189;28;20186;-59
2022/07/20 03:09:20;;;;;;;40.88;22.55;;;;;;;;;;5071214;28;20194;-59
2022/07/20 03:11:46;;;;;;;43.10;22.42;;;;;;;;;;5071576;28;20233;-59
2022/07/20 03:14:12;;;;;;;44.83;22.83;;;;;;;;;;5070048;28;20183;-59
2022/07/20 03:16:39;;;;;;;52.78;23.75;;;;;;;;;;5061884;28;20209;-58
2022/07/20 03:19:05;;;;;;;42.30;23.45;;;;;;;;;;5068526;28;20520;-59
2022/07/20 03:21:31;;;;;;;47.30;23.27;;;;;;;;;;5066737;28;20174;-59
2022/07/20 03:23:57;;;;;;;46.90;23.60;;;;;;;;;;5069282;28;20629;-58
2022/07/20 03:26:23;;;;;;;49.58;24.02;;;;;;;;;;5045232;28;20187;-59
2022/07/20 03:28:49;;;;;;;44.45;25.33;;;;;;;;;;5062582;28;20657;-59
2022/07/20 03:31:15;;;;;;;41.38;23.42;;;;;;;;;;5038379;28;20231;-59
2022/07/20 03:33:41;;;;;;;49.30;24.98;;;;;;;;;;5055185;28;20688;-59
2022/07/20 03:36:09;;;;;;;42.40;24.48;;;;;;;;;;5069067;28;20860;-59
2022/07/20 03:38:35;;;;;;;48.33;25.05;;;;;;;;;;5072031;28;20232;-58
2022/07/20 03:41:02;;;;;;;43.85;25.17;;;;;;;;;;5072161;28;20194;-59
2022/07/20 03:43:28;;;;;;;49.03;26.60;;;;;;;;;;5053102;28;20179;-58
2022/07/20 03:45:54;;;;;;;50.70;26.23;;;;;;;;;;5036719;28;20183;-59
2022/07/20 03:48:20;;;;;;;51.03;26.23;;;;;;;;;;5076362;28;20183;-60
2022/07/20 03:50:46;;;;;;;48.72;26.85;;;;;;;;;;5069091;28;20230;-60
2022/07/20 03:53:14;;;;;;;52.55;27.25;;;;;;;;;;5055091;28;20211;-58
2022/07/20 03:55:41;;;;;;;56.05;27.65;;;;;;;;;;5055203;28;20325;-59
2022/07/20 03:58:07;;;;;;;53.30;26.85;;;;;;;;;;5067553;28;20174;-60
2022/07/20 04:00:33;;;;;;;57.47;27.15;;;;;;;;;;5068609;28;20210;-60
2022/07/20 04:02:59;;;;;;;53.30;28.02;;;;;;;;;;5064329;28;20187;-59
2022/07/20 04:05:25;;;;;;;53.72;27.92;;;;;;;;;;5075979;28;20264;-59
2022/07/20 04:07:52;;;;;;;52.28;28.48;;;;;;;;;;5058045;28;20187;-59
2022/07/20 04:10:18;;;;;;;53.30;29.30;;;;;;;;;;5072254;28;20179;-58
2022/07/20 04:12:44;;;;;;;56.92;30.02;;;;;;;;;;5066517;28;20225;-58
2022/07/20 04:15:10;;;;;;;62.33;32.33;;;;;;;;;;5054480;28;20202;-58
2022/07/20 04:17:36;;;;;;;55.15;31.25;;;;;;;;;;5060991;28;20600;-59
2022/07/20 04:20:04;;;;;;;57.38;31.80;;;;;;;;;;5057156;28;20187;-58
2022/07/20 04:22:30;;;;;;;61.50;33.70;;;;;;;;;;5049274;28;20539;-57
2022/07/20 04:24:56;;;;;;;61.90;32.45;;;;;;;;;;5069579;28;20640;-57
2022/07/20 04:27:23;;;;;;;60.05;33.63;;;;;;;;;;5069288;28;20202;-57
2022/07/20 04:29:49;;;;;;;61.05;33.40;;;;;;;;;;5068285;28;20183;-58
2022/07/20 04:32:15;;;;;;;58.35;32.53;;;;;;;;;;5047635;28;20202;-58
2022/07/20 04:34:41;;;;;;;54.90;32.60;;;;;;;;;;5063044;28;20187;-57
2022/07/20 04:37:07;;;;;;;52.63;32.83;;;;;;;;;;5063993;28;20179;-59
2022/07/20 04:39:35;;;;;;;61.35;33.65;;;;;;;;;;5070774;28;20187;-59
2022/07/20 04:42:02;;;;;;;61.58;34.85;;;;;;;;;;5065993;28;20181;-61
2022/07/20 04:44:28;;;;;;;52.60;33.20;;;;;;;;;;5053581;28;20175;-59
2022/07/20 04:46:54;;;;;;;63.53;34.17;;;;;;;;;;5067874;28;20195;-58
2022/07/20 04:49:20;;;;;;;60.78;33.22;;;;;;;;;;5054999;28;20187;-58
2022/07/20 04:51:46;;;;;;;63.80;35.03;;;;;;;;;;5066119;28;20671;-60
2022/07/20 04:54:12;;;;;;;64.30;34.65;;;;;;;;;;5061667;28;20221;-59
2022/07/20 04:56:39;;;;;;;56.42;33.33;;;;;;;;;;5066442;28;20194;-58
2022/07/20 04:59:05;;;;;;;62.10;33.42;;;;;;;;;;5063615;28;20194;-59
2022/07/20 05:01:31;;;;;;;57.42;33.13;;;;;;;;;;5064750;28;20671;-59
2022/07/20 05:03:57;;;;;;;58.80;33.20;;;;;;;;;;5061882;28;20628;-59
2022/07/20 05:06:23;;;;;;;62.05;33.28;;;;;;;;;;5064853;28;20174;-59
2022/07/20 05:08:49;;;;;;;62.17;33.15;;;;;;;;;;5053557;28;20172;-58
2022/07/20 05:11:16;;;;;;;61.67;32.95;;;;;;;;;;5056507;28;20555;-58
2022/07/20 05:13:42;;;;;;;59.33;32.40;;;;;;;;;;5034808;28;20207;-59
2022/07/20 05:16:09;;;;;;;56.95;32.20;;;;;;;;;;5042198;28;20672;-59
2022/07/20 05:18:35;;;;;;;53.78;31.60;;;;;;;;;;5059761;28;20175;-59
2022/07/20 05:21:02;;;;;;;57.60;31.27;;;;;;;;;;5037177;28;20187;-59
2022/07/20 05:23:28;;;;;;;55.58;33.25;;;;;;;;;;5069897;28;20187;-58
2022/07/20 05:25:55;;;;;;;55.78;31.05;;;;;;;;;;5050879;28;20182;-58
2022/07/20 05:28:21;;;;;;;50.97;30.73;;;;;;;;;;5057910;28;20191;-59
2022/07/20 05:30:51;;;;;;;52.03;29.60;;;;;;;;;;5055970;28;20703;-59
2022/07/20 05:33:17;;;;;;;48.75;27.60;;;;;;;;;;5055785;28;20218;-59
2022/07/20 05:35:44;;;;;;;54.78;29.15;;;;;;;;;;5060074;28;20186;-59
2022/07/20 05:38:11;;;;;;;47.92;25.75;;;;;;;;;;5064077;28;20266;-58
2022/07/20 05:40:37;;;;;;;57.22;27.48;;;;;;;;;;5064543;28;20209;-59
2022/07/20 05:43:04;;;;;;;51.63;25.23;;;;;;;;;;5064130;28;20183;-59
2022/07/20 05:45:30;;;;;;;51.45;25.80;;;;;;;;;;5045487;28;20269;-59
2022/07/20 05:47:56;;;;;;;50.10;24.67;;;;;;;;;;5072241;28;20531;-59
2022/07/20 05:50:22;;;;;;;66.28;23.70;;;;;;;;;;5040270;28;20236;-59
2022/07/20 05:52:48;;;;;;;48.75;23.60;;;;;;;;;;5058525;28;20238;-59
2022/07/20 05:55:15;;;;;;;48.20;23.50;;;;;;;;;;5075233;28;20281;-59
2022/07/20 05:57:42;;;;;;;50.25;22.23;;;;;;;;;;5068442;28;20190;-59
2022/07/20 06:00:09;;;;;;;43.55;22.17;;;;;;;;;;5073151;28;20186;-59
2022/07/20 06:02:35;;;;;;;48.47;22.52;;;;;;;;;;5057171;28;20615;-58
2022/07/20 06:05:01;;;;;;;47.10;22.30;;;;;;;;;;5069292;28;20183;-59
2022/07/20 06:07:27;;;;;;;51.67;21.88;;;;;;;;;;5065964;28;20269;-59
2022/07/20 06:09:54;;;;;;;46.47;22.80;;;;;;;;;;5069590;28;20223;-63
2022/07/20 06:12:20;;;;;;;39.38;20.15;;;;;;;;;;5052634;28;20222;-61
2022/07/20 06:14:46;;;;;;;50.85;21.35;;;;;;;;;;5074291;28;20269;-58
2022/07/20 06:17:12;;;;;;;41.75;20.10;;;;;;;;;;5065612;28;20179;-59
2022/07/20 06:19:38;;;;;;;43.22;20.02;;;;;;;;;;5058518;28;20182;-59
2022/07/20 06:22:04;;;;;;;42.40;20.17;;;;;;;;;;5073123;28;20186;-58
2022/07/20 06:24:30;;;;;;;36.70;19.20;;;;;;;;;;5058959;28;20182;-59
2022/07/20 06:26:57;;;;;;;35.22;17.80;;;;;;;;;;5066917;28;20189;-60
2022/07/20 06:29:23;;;;;;;35.33;17.45;;;;;;;;;;5056695;28;20266;-59
2022/07/20 06:31:50;;;;;;;33.78;17.50;;;;;;;;;;5074510;28;20235;-59
2022/07/20 06:34:16;;;;;;;34.38;17.38;;;;;;;;;;5075315;28;20190;-58
2022/07/20 06:36:44;;;;;;;35.67;16.67;;;;;;;;;;5072626;28;20182;-59
2022/07/20 06:39:10;;;;;;;36.85;17.52;;;;;;;;;;5065666;28;20225;-59
2022/07/20 06:41:36;;;;;;;33.70;17.42;;;;;;;;;;5052714;28;20185;-58
2022/07/20 06:44:09;;;;;;;37.78;18.10;;;;;;;;;;5043632;28;20245;-59
2022/07/20 06:46:35;;;;;;;34.83;17.60;;;;;;;;;;5064321;28;20281;-59
2022/07/20 06:49:01;;;;;;;29.45;16.45;;;;;;;;;;5064544;28;20262;-59
2022/07/20 06:51:27;;;;;;;31.38;15.85;;;;;;;;;;5050294;28;20223;-59
2022/07/20 06:53:53;;;;;;;37.00;17.35;;;;;;;;;;5064857;28;20218;-59
2022/07/20 06:56:20;;;;;;;37.65;16.90;;;;;;;;;;5072824;28;20178;-59
2022/07/20 06:58:46;;;;;;;34.42;16.70;;;;;;;;;;5046639;28;20187;-59
2022/07/20 07:01:12;;;;;;;35.30;16.50;;;;;;;;;;5054857;28;20178;-59
2022/07/20 07:03:38;;;;;;;34.25;13.68;;;;;;;;;;5056801;28;20187;-59
2022/07/20 07:06:04;;;;;;;39.13;15.52;;;;;;;;;;5055047;28;20269;-59
2022/07/20 07:08:31;;;;;;;35.00;16.08;;;;;;;;;;5054055;28;20189;-60
2022/07/20 07:10:57;;;;;;;38.60;14.07;;;;;;;;;;5055951;28;20941;-60
2022/07/20 07:13:23;;;;;;;34.13;14.07;;;;;;;;;;5073683;28;20289;-60
2022/07/20 07:15:49;;;;;;;35.30;14.50;;;;;;;;;;5038866;28;20265;-60
2022/07/20 07:18:15;;;;;;;52.60;14.50;;;;;;;;;;5072965;28;20279;-60
2022/07/20 07:20:41;;;;;;;37.40;13.32;;;;;;;;;;5054969;28;20181;-60
2022/07/20 07:23:07;;;;;;;44.50;14.13;;;;;;;;;;5069412;28;20233;-60
2022/07/20 07:25:34;;;;;;;30.33;14.13;;;;;;;;;;5057367;28;20271;-60
2022/07/20 07:28:01;;;;;;;30.23;14.18;;;;;;;;;;5070686;28;20201;-60
2022/07/20 07:30:28;;;;;;;30.48;13.85;;;;;;;;;;5055751;28;20197;-59
2022/07/20 07:32:54;;;;;;;28.80;13.60;;;;;;;;;;5073048;28;20210;-59
2022/07/20 07:35:22;;;;;;;29.95;13.95;;;;;;;;;;5073908;28;20187;-59
2022/07/20 07:37:49;;;;;;;29.25;13.50;;;;;;;;;;5042061;28;20262;-60
2022/07/20 07:40:15;;;;;;;29.40;12.35;;;;;;;;;;5072787;28;20202;-60
2022/07/20 07:42:41;;;;;;;25.02;12.40;;;;;;;;;;5071243;28;20205;-60
2022/07/20 07:45:08;;;;;;;25.42;12.52;;;;;;;;;;5073948;28;20174;-60
2022/07/20 07:47:34;;;;;;;28.48;12.32;;;;;;;;;;5070357;28;20175;-60
2022/07/20 07:50:01;;;;;;;29.63;12.65;;;;;;;;;;5059663;28;20222;-60
2022/07/20 07:52:27;;;;;;;30.98;12.80;;;;;;;;;;5058673;28;20722;-59
2022/07/20 07:54:53;;;;;;;27.92;12.75;;;;;;;;;;5071825;28;20187;-58
2022/07/20 07:57:19;;;;;;;31.67;12.05;;;;;;;;;;5069580;28;20668;-58
2022/07/20 07:59:45;;;;;;;24.50;12.27;;;;;;;;;;5055107;28;20192;-58
2022/07/20 08:02:12;;;;;;;27.20;11.70;;;;;;;;;;5062485;28;20245;-60
2022/07/20 08:04:38;;;;;;;34.53;11.80;;;;;;;;;;5053338;28;20168;-59
2022/07/20 08:07:04;;;;;;;36.05;12.15;;;;;;;;;;5061956;28;20182;-59
2022/07/20 08:09:30;;;;;;;27.17;12.10;;;;;;;;;;5055481;28;20257;-58
2022/07/20 08:11:56;;;;;;;39.15;12.02;;;;;;;;;;5070596;28;20214;-59
2022/07/20 08:14:22;;;;;;;26.83;12.60;;;;;;;;;;5058180;28;20663;-58
2022/07/20 08:16:48;;;;;;;27.73;11.95;;;;;;;;;;5052915;28;20206;-58
2022/07/20 08:19:15;;;;;;;24.50;11.52;;;;;;;;;;5065946;28;20183;-58
2022/07/20 08:21:41;;;;;;;26.98;11.43;;;;;;;;;;5070736;28;20213;-59
2022/07/20 08:24:07;;;;;;;28.00;10.85;;;;;;;;;;5072837;28;20280;-60
2022/07/20 08:26:33;;;;;;;25.85;11.30;;;;;;;;;;5068391;28;20183;-60
2022/07/20 08:29:01;;;;;;;28.10;11.45;;;;;;;;;;5068927;28;20191;-60
2022/07/20 08:31:27;;;;;;;30.50;11.38;;;;;;;;;;5059457;28;20244;-61
2022/07/20 08:33:53;;;;;;;23.90;10.50;;;;;;;;;;5059476;28;20218;-61
2022/07/20 08:36:19;;;;;;;25.13;10.90;;;;;;;;;;5037358;28;20232;-60
2022/07/20 08:38:45;;;;;;;19.13;9.40;;;;;;;;;;5055018;28;20190;-60
2022/07/20 08:41:11;;;;;;;29.60;11.13;;;;;;;;;;5067311;28;20179;-60
2022/07/20 08:43:38;;;;;;;36.35;11.10;;;;;;;;;;5053312;28;20193;-61
2022/07/20 08:46:04;;;;;;;23.02;9.73;;;;;;;;;;5062291;28;20228;-60
2022/07/20 08:48:30;;;;;;;22.05;9.40;;;;;;;;;;5072583;28;20175;-60
2022/07/20 08:50:56;;;;;;;24.48;9.93;;;;;;;;;;5071377;28;20257;-60
2022/07/20 08:53:22;;;;;;;33.95;9.18;;;;;;;;;;5042285;28;20214;-61
2022/07/20 08:55:48;;;;;;;20.73;8.23;;;;;;;;;;5054800;28;20191;-60
2022/07/20 08:58:15;;;;;;;20.05;8.68;;;;;;;;;;5072016;28;20194;-60
2022/07/20 09:00:41;;;;;;;45.70;8.05;;;;;;;;;;5071067;28;20202;-60
2022/07/20 09:03:10;;;;;;;30.83;7.07;;;;;;;;;;5040694;28;20198;-64
2022/07/20 09:05:38;;;;;;;39.90;7.55;;;;;;;;;;5034573;28;20583;-59
2022/07/20 09:08:05;;;;;;;18.35;6.07;;;;;;;;;;5071877;28;20288;-60
2022/07/20 09:10:33;;;;;;;20.60;6.32;;;;;;;;;;5072057;28;20253;-60
2022/07/20 09:13:07;;;;;;;21.08;6.93;;;;;;;;;;5063217;28;20676;-60
2022/07/20 09:15:39;;;;;;;19.50;6.20;;;;;;;;;;5056489;28;20253;-60
2022/07/20 09:18:26;;;;;;;17.98;5.18;;;;;;;;;;5072170;28;20185;-59
2022/07/20 09:21:02;;;;;;;22.25;5.15;;;;;;;;;;5075105;28;20269;-59
2022/07/20 09:23:31;;;;;;;14.75;4.72;;;;;;;;;;5069278;28;20183;-59
2022/07/20 09:25:58;;;;;;;11.43;4.50;;;;;;;;;;5040330;28;20190;-59
2022/07/20 09:28:42;;;;;;;20.70;5.20;;;;;;;;;;5074244;28;20202;-59
2022/07/20 09:31:16;;;;;;;19.63;5.07;;;;;;;;;;5075136;28;20174;-61
2022/07/20 09:33:52;;;;;;;21.45;4.90;;;;;;;;;;5076409;28;20203;-59
2022/07/20 09:36:19;;;;;;;14.27;4.65;;;;;;;;;;5042727;28;20197;-60
2022/07/20 09:38:46;;;;;;;21.60;4.38;;;;;;;;;;5069355;28;20214;-59
2022/07/20 09:41:27;;;;;;;17.55;4.72;;;;;;;;;;5059926;28;20265;-59
2022/07/20 09:43:53;;;;;;;16.80;4.65;;;;;;;;;;5075758;28;20265;-59
2022/07/20 09:46:21;;;;;;;15.88;4.40;;;;;;;;;;5065891;28;20182;-59
2022/07/20 09:48:51;;;;;;;17.80;5.22;;;;;;;;;;5071838;28;20179;-59
2022/07/20 09:51:19;;;;;;;13.52;5.22;;;;;;;;;;5054256;28;20663;-59
2022/07/20 09:53:45;;;;;;;14.25;4.82;;;;;;;;;;5057784;28;20638;-60
2022/07/20 09:56:11;;;;;;;19.20;5.55;;;;;;;;;;5074570;28;20194;-59
2022/07/20 09:58:38;;;;;;;19.30;5.60;;;;;;;;;;5072607;28;20183;-59
2022/07/20 10:01:04;;;;;;;15.48;5.35;;;;;;;;;;5061279;28;20190;-59
2022/07/20 10:03:30;;;;;;;13.45;5.63;;;;;;;;;;5057785;28;20202;-59
2022/07/20 10:05:57;;;;;;;18.67;6.75;;;;;;;;;;5073189;28;20313;-60
2022/07/20 10:08:24;;;;;;;15.82;6.85;;;;;;;;;;5068654;28;20608;-60
2022/07/20 10:10:50;;;;;;;15.95;7.30;;;;;;;;;;5064957;28;20239;-60
2022/07/20 10:13:17;;;;;;;18.90;8.30;;;;;;;;;;5037853;28;20223;-59
2022/07/20 10:15:52;;;;;;;19.38;8.85;;;;;;;;;;5037341;28;20187;-60
2022/07/20 10:18:19;;;;;;;22.27;9.45;;;;;;;;;;5037516;28;20183;-61
2022/07/20 10:20:45;;;;;;;19.67;9.40;;;;;;;;;;5056648;28;20193;-59
2022/07/20 10:23:15;;;;;;;18.98;8.43;;;;;;;;;;5055237;28;20281;-59
2022/07/20 10:25:45;;;;;;;16.05;7.35;;;;;;;;;;5071983;28;20274;-59
2022/07/20 10:28:24;;;;;;;34.78;7.80;;;;;;;;;;5073627;28;20181;-59
2022/07/20 10:31:02;;;;;;;18.83;7.35;;;;;;;;;;5059333;28;20636;-57
2022/07/20 10:33:28;;;;;;;13.80;6.55;;;;;;;;;;5055102;28;20207;-58
2022/07/20 10:38:40;;;;;;;14.73;5.50;;;;;;;;;;5054449;28;20186;-57
2022/07/20 10:44:11;;;;;;;13.75;4.22;;;;;;;;;;5060030;28;20631;-58
2022/07/20 10:46:37;;;;;;;12.80;4.28;;;;;;;;;;5062501;28;20190;-58
2022/07/20 10:49:03;;;;;;;14.98;4.07;;;;;;;;;;5065712;28;20667;-58
2022/07/20 10:51:29;;;;;;;15.57;4.05;;;;;;;;;;5067915;28;20237;-58
2022/07/20 10:53:55;;;;;;;17.58;5.68;;;;;;;;;;5072436;28;20244;-58
2022/07/20 10:56:31;;;;;;;14.50;4.50;;;;;;;;;;5073502;28;20243;-58
2022/07/20 10:59:00;;;;;;;14.10;4.38;;;;;;;;;;5057205;28;20178;-58
2022/07/20 11:01:26;;;;;;;15.88;5.07;;;;;;;;;;5073705;28;20640;-58
2022/07/20 11:03:53;;;;;;;13.48;4.65;;;;;;;;;;5071073;28;20267;-59
2022/07/20 11:06:20;;;;;;;12.32;6.13;;;;;;;;;;5062567;28;20183;-59
2022/07/20 11:08:53;;;;;;;22.65;6.43;;;;;;;;;;5071099;28;20312;-58
2022/07/20 11:11:22;;;;;;;20.75;6.75;;;;;;;;;;5072844;28;20186;-59
2022/07/20 11:13:49;;;;;;;12.57;5.82;;;;;;;;;;5074425;28;20672;-58
2022/07/20 11:16:19;;;;;;;16.08;7.43;;;;;;;;;;5071582;28;20190;-58
2022/07/20 11:18:47;;;;;;;20.55;6.95;;;;;;;;;;5055594;28;20189;-57
2022/07/20 11:21:13;;;;;;;15.55;6.53;;;;;;;;;;5071824;28;20253;-57
2022/07/20 11:23:41;;;;;;;17.38;6.40;;;;;;;;;;5065125;28;20752;-58
2022/07/20 11:26:07;;;;;;;19.10;7.00;;;;;;;;;;5064537;28;20642;-58
2022/07/20 11:28:35;;;;;;;17.33;7.43;;;;;;;;;;5074109;28;20170;-58
2022/07/20 11:31:02;;;;;;;16.92;6.72;;;;;;;;;;5072771;28;20673;-58
2022/07/20 11:33:31;;;;;;;16.25;6.65;;;;;;;;;;5074012;28;20248;-59
2022/07/20 11:36:06;;;;;;;18.00;7.55;;;;;;;;;;5053612;28;20190;-58
2022/07/20 11:38:38;;;;;;;18.67;7.57;;;;;;;;;;5072529;28;20201;-59
2022/07/20 11:41:06;;;;;;;15.68;7.50;;;;;;;;;;5053282;28;20273;-58
2022/07/20 11:43:32;;;;;;;16.55;7.35;;;;;;;;;;5066661;28;20651;-58
2022/07/20 11:46:16;;;;;;;16.67;7.30;;;;;;;;;;5054125;28;20190;-58
2022/07/20 11:48:43;;;;;;;14.32;7.40;;;;;;;;;;5054855;28;20652;-58
2022/07/20 11:51:10;;;;;;;16.90;6.90;;;;;;;;;;5058650;28;20229;-58
2022/07/20 11:53:38;;;;;;;14.73;6.78;;;;;;;;;;5073359;28;20796;-58
2022/07/20 11:56:06;;;;;;;15.40;6.90;;;;;;;;;;5062844;28;20190;-58
2022/07/20 11:58:37;;;;;;;18.05;7.00;;;;;;;;;;5071633;28;20209;-58
2022/07/20 12:01:04;;;;;;;13.95;7.03;;;;;;;;;;5060566;28;20175;-58
2022/07/20 12:03:36;;;;;;;15.60;6.80;;;;;;;;;;5073275;28;20178;-59
2022/07/20 12:06:04;;;;;;;14.60;6.93;;;;;;;;;;5071504;28;20174;-58
2022/07/20 12:08:31;;;;;;;16.95;6.50;;;;;;;;;;5068632;28;20178;-59
2022/07/20 12:10:59;;;;;;;12.63;6.18;;;;;;;;;;5052415;28;20201;-59
2022/07/20 12:13:26;;;;;;;11.48;6.30;;;;;;;;;;5066012;28;20230;-59
2022/07/20 12:16:12;;;;;;;11.90;5.60;;;;;;;;;;5068730;28;20193;-60
2022/07/20 12:18:40;;;;;;;12.05;5.68;;;;;;;;;;5053333;28;20186;-59
2022/07/20 12:21:07;;;;;;;14.05;5.75;;;;;;;;;;5072394;28;20639;-60
2022/07/20 12:23:33;;;;;;;14.73;5.03;;;;;;;;;;5070740;28;20200;-59
2022/07/20 12:26:00;;;;;;;13.27;5.43;;;;;;;;;;5070788;28;20196;-58
2022/07/20 12:28:30;;;;;;;15.95;5.78;;;;;;;;;;5060134;28;20190;-58
2022/07/20 12:31:10;;;;;;;15.10;5.53;;;;;;;;;;5069566;28;20201;-58
2022/07/20 12:33:36;;;;;;;10.57;4.85;;;;;;;;;;5064786;28;20260;-57
2022/07/20 12:36:06;;;;;;;12.13;5.20;;;;;;;;;;5055419;28;20187;-59
2022/07/20 12:38:34;;;;;;;21.17;6.25;;;;;;;;;;5071744;28;20238;-59
2022/07/20 12:41:10;;;;;;;20.52;5.10;;;;;;;;;;5070220;28;20269;-59
2022/07/20 12:43:41;;;;;;;13.98;4.65;;;;;;;;;;5070938;28;20185;-58
2022/07/20 12:46:10;;;;;;;13.07;4.40;;;;;;;;;;5070423;28;20174;-59
2022/07/20 12:48:40;;;;;;;10.50;4.00;;;;;;;;;;5058527;28;20174;-59
2022/07/20 12:51:07;;;;;;;14.23;5.05;;;;;;;;;;5040369;28;20310;-59
2022/07/20 12:53:37;;;;;;;12.15;4.60;;;;;;;;;;5029573;28;20689;-59
2022/07/20 12:56:05;;;;;;;11.63;3.40;;;;;;;;;;5026759;28;20606;-59
2022/07/20 12:58:31;;;;;;;11.75;2.70;;;;;;;;;;5032349;28;20650;-59
2022/07/20 13:00:57;;;;;;;9.02;2.90;;;;;;;;;;5012235;28;20203;-60
2022/07/20 13:03:23;;;;;;;8.10;2.30;;;;;;;;;;5031385;28;20598;-60
2022/07/20 13:05:50;;;;;;;9.00;3.08;;;;;;;;;;5030120;28;20219;-59
2022/07/20 13:08:17;;;;;;;8.32;2.40;;;;;;;;;;5014079;28;20196;-59
2022/07/20 13:10:44;;;;;;;10.70;2.60;;;;;;;;;;5015953;28;20188;-59
2022/07/20 13:13:10;;;;;;;7.28;2.20;;;;;;;;;;5018070;28;20270;-59
2022/07/20 13:15:36;;;;;;;7.05;2.28;;;;;;;;;;5013084;28;20228;-59
2022/07/20 13:18:02;;;;;;;8.95;2.30;;;;;;;;;;5032299;28;20187;-59
2022/07/20 13:20:28;;;;;;;7.18;2.28;;;;;;;;;;5033049;28;20652;-63
2022/07/20 13:22:55;;;;;;;7.93;2.35;;;;;;;;;;5031392;28;20192;-59
2022/07/20 13:25:23;;;;;;;15.70;3.15;;;;;;;;;;5032137;28;20212;-59
2022/07/20 13:27:49;;;;;;;16.30;3.00;;;;;;;;;;5030927;28;20191;-59
2022/07/20 13:30:16;;;;;;;12.00;2.78;;;;;;;;;;5032744;28;20185;-59
2022/07/20 13:32:43;;;;;;;10.40;2.83;;;;;;;;;;5014624;28;20212;-59
2022/07/20 13:35:09;;;;;;;11.00;2.60;;;;;;;;;;5008785;28;20552;-59
2022/07/20 13:37:39;;;;;;;10.23;2.72;;;;;;;;;;5022502;28;20599;-59
2022/07/20 13:40:08;;;;;;;15.68;3.15;;;;;;;;;;5026477;28;20188;-59
2022/07/20 13:42:35;;;;;;;11.18;2.85;;;;;;;;;;5031180;28;20272;-59
2022/07/20 13:45:01;;;;;;;10.52;3.20;;;;;;;;;;5012126;28;20196;-59
2022/07/20 13:47:28;;;;;;;10.00;3.35;;;;;;;;;;5025287;28;20188;-59
2022/07/20 13:49:54;;;;;;;18.23;4.55;;;;;;;;;;5032174;28;20555;-58
2022/07/20 13:52:21;;;;;;;17.77;3.75;;;;;;;;;;5037898;28;20222;-59
2022/07/20 13:54:47;;;;;;;17.27;3.85;;;;;;;;;;5072009;28;20660;-59
2022/07/20 13:57:13;;;;;;;11.07;3.28;;;;;;;;;;5069179;28;20201;-59
2022/07/20 13:59:39;;;;;;;9.68;3.28;;;;;;;;;;5071481;28;20667;-68
2022/07/20 14:02:05;;;;;;;13.93;3.88;;;;;;;;;;5057574;28;20179;-59
2022/07/20 14:04:31;;;;;;;10.10;3.38;;;;;;;;;;5073008;28;20179;-59
2022/07/20 14:07:01;;;;;;;11.30;3.65;;;;;;;;;;5060821;28;20191;-59
2022/07/20 14:09:27;;;;;;;15.10;3.70;;;;;;;;;;5055902;28;20197;-59
2022/07/20 14:11:54;;;;;;;10.13;4.05;;;;;;;;;;5064138;28;20191;-59
2022/07/20 14:14:20;;;;;;;7.97;3.85;;;;;;;;;;5050495;28;20260;-59
2022/07/20 14:16:46;;;;;;;16.88;4.40;;;;;;;;;;5063483;28;20628;-60
2022/07/20 14:19:13;;;;;;;16.00;4.47;;;;;;;;;;5071489;28;20191;-61
2022/07/20 14:21:41;;;;;;;10.23;3.90;;;;;;;;;;5071560;28;20185;-60
2022/07/20 14:24:07;;;;;;;12.10;4.07;;;;;;;;;;5050696;28;20550;-59
2022/07/20 14:26:33;;;;;;;7.38;3.65;;;;;;;;;;5071086;28;20232;-60
2022/07/20 14:29:03;;;;;;;12.77;4.20;;;;;;;;;;5073544;28;20186;-60
2022/07/20 14:31:30;;;;;;;11.40;3.85;;;;;;;;;;5073174;28;20273;-60
2022/07/20 14:33:56;;;;;;;14.70;4.30;;;;;;;;;;5075286;28;20237;-60
2022/07/20 14:36:22;;;;;;;13.07;4.75;;;;;;;;;;5073645;28;20194;-60